createdAt,value
2023-03-17T00:00:46.768Z,4.07
2023-03-17T00:03:29.699Z,4.15
2023-03-17T00:05:58.977Z,4.32
2023-03-17T00:08:32.935Z,4.57
2023-03-17T00:11:01.158Z,5.83
2023-03-17T00:13:30.698Z,4.85
2023-03-17T00:16:05.012Z,5.68
2023-03-17T00:18:33.458Z,4.55
2023-03-17T00:21:00.649Z,5.50
2023-03-17T00:23:27.767Z,5.37
2023-03-17T00:25:54.969Z,5.38
2023-03-17T00:28:25.734Z,4.32
2023-03-17T00:30:59.194Z,4.43
2023-03-17T00:33:30.030Z,5.50
2023-03-17T00:35:58.684Z,4.67
2023-03-17T00:38:26.160Z,4.80
2023-03-17T00:40:53.443Z,5.18
2023-03-17T00:43:22.386Z,4.43
2023-03-17T00:45:49.583Z,3.85
2023-03-17T00:48:20.922Z,4.10
2023-03-17T00:50:50.574Z,3.30
2023-03-17T00:53:21.614Z,3.85
2023-03-17T00:55:50.011Z,5.30
2023-03-17T00:58:32.818Z,4.22
2023-03-17T01:01:01.016Z,5.33
2023-03-17T01:03:28.918Z,8.88
2023-03-17T01:05:57.820Z,4.18
2023-03-17T01:08:26.273Z,5.82
2023-03-17T01:10:53.421Z,3.88
2023-03-17T01:13:20.825Z,3.60
2023-03-17T01:15:50.574Z,3.30
2023-03-17T01:18:21.391Z,3.67
2023-03-17T01:20:50.590Z,7.07
2023-03-17T01:23:18.247Z,3.00
2023-03-17T01:25:45.668Z,5.00
2023-03-17T01:28:19.370Z,3.88
2023-03-17T01:30:47.418Z,4.38
2023-03-17T01:33:15.310Z,3.70
2023-03-17T01:35:45.836Z,4.15
2023-03-17T01:38:15.098Z,3.93
2023-03-17T01:40:52.013Z,4.20
2023-03-17T01:43:29.558Z,3.97
2023-03-17T01:46:25.468Z,3.22
2023-03-17T01:49:00.121Z,3.20
2023-03-17T01:51:52.642Z,3.60
2023-03-17T01:54:45.589Z,3.65
2023-03-17T01:57:21.492Z,3.15
2023-03-17T01:59:56.542Z,3.67
2023-03-17T02:02:34.856Z,3.92
2023-03-17T02:05:04.303Z,3.53
2023-03-17T02:07:31.488Z,5.25
2023-03-17T02:09:59.659Z,3.55
2023-03-17T02:12:29.054Z,4.55
2023-03-17T02:14:57.420Z,4.22
2023-03-17T02:17:27.330Z,3.80
2023-03-17T02:19:56.171Z,4.22
2023-03-17T02:22:24.054Z,3.83
2023-03-17T02:24:58.630Z,3.20
2023-03-17T02:27:39.786Z,5.72
2023-03-17T02:30:09.572Z,3.40
2023-03-17T02:32:38.185Z,3.75
2023-03-17T02:35:08.316Z,3.47
2023-03-17T02:37:37.854Z,4.25
2023-03-17T02:40:07.704Z,4.68
2023-03-17T02:42:35.729Z,3.20
2023-03-17T02:45:03.137Z,7.45
2023-03-17T02:47:30.324Z,4.03
2023-03-17T02:49:57.458Z,3.35
2023-03-17T02:52:25.271Z,5.07
2023-03-17T02:54:52.766Z,3.73
2023-03-17T02:57:19.840Z,4.32
2023-03-17T02:59:47.033Z,3.90
2023-03-17T03:02:14.361Z,3.15
2023-03-17T03:04:41.950Z,3.30
2023-03-17T03:07:10.522Z,3.53
2023-03-17T03:09:37.611Z,4.85
2023-03-17T03:12:06.499Z,3.47
2023-03-17T03:14:33.670Z,3.95
2023-03-17T03:17:00.696Z,3.85
2023-03-17T03:19:28.313Z,2.87
2023-03-17T03:21:55.393Z,5.72
2023-03-17T03:24:22.894Z,3.35
2023-03-17T03:26:50.022Z,3.58
2023-03-17T03:29:17.127Z,6.30
2023-03-17T03:31:44.284Z,5.40
2023-03-17T03:34:11.484Z,4.68
2023-03-17T03:36:38.622Z,3.45
2023-03-17T03:39:05.745Z,4.43
2023-03-17T03:41:32.776Z,4.13
2023-03-17T03:44:00.038Z,2.73
2023-03-17T03:46:27.951Z,3.63
2023-03-17T03:48:55.769Z,3.67
2023-03-17T03:51:22.896Z,4.30
2023-03-17T03:53:50.083Z,4.38
2023-03-17T03:56:17.137Z,6.30
2023-03-17T03:58:44.331Z,2.88
2023-03-17T04:01:11.679Z,5.82
2023-03-17T04:03:39.260Z,4.40
2023-03-17T04:06:06.595Z,3.75
2023-03-17T04:08:33.781Z,3.47
2023-03-17T04:11:01.119Z,4.95
2023-03-17T04:13:28.191Z,4.50
2023-03-17T04:15:55.339Z,4.78
2023-03-17T04:18:22.450Z,4.63
2023-03-17T04:20:49.530Z,3.77
2023-03-17T04:23:17.344Z,3.78
2023-03-17T04:25:44.946Z,7.40
2023-03-17T04:28:12.243Z,3.50
2023-03-17T04:30:39.410Z,4.75
2023-03-17T04:33:07.229Z,3.07
2023-03-17T04:35:34.487Z,4.32
2023-03-17T04:38:01.689Z,5.63
2023-03-17T04:40:29.146Z,4.10
2023-03-17T04:42:56.386Z,6.80
2023-03-17T04:45:23.458Z,4.83
2023-03-17T04:47:50.991Z,3.55
2023-03-17T04:50:18.202Z,4.57
2023-03-17T04:52:45.642Z,3.60
2023-03-17T04:55:12.704Z,3.92
2023-03-17T04:57:39.973Z,3.40
2023-03-17T05:00:08.441Z,3.80
2023-03-17T05:02:35.765Z,3.78
2023-03-17T05:05:02.883Z,3.50
2023-03-17T05:07:31.304Z,5.07
2023-03-17T05:09:59.603Z,4.07
2023-03-17T05:12:27.028Z,4.13
2023-03-17T05:14:54.089Z,3.55
2023-03-17T05:17:21.438Z,4.45
2023-03-17T05:19:48.590Z,4.53
2023-03-17T05:22:15.689Z,8.53
2023-03-17T05:24:42.976Z,3.65
2023-03-17T05:27:10.118Z,3.95
2023-03-17T05:29:38.090Z,6.30
2023-03-17T05:32:05.767Z,6.28
2023-03-17T05:34:33.535Z,5.80
2023-03-17T05:37:01.337Z,5.25
2023-03-17T05:39:28.584Z,6.38
2023-03-17T05:41:56.982Z,7.65
2023-03-17T05:44:24.765Z,3.90
2023-03-17T05:46:51.846Z,5.20
2023-03-17T05:49:19.162Z,3.70
2023-03-17T05:51:46.498Z,4.63
2023-03-17T05:54:13.945Z,6.05
2023-03-17T05:56:41.427Z,4.32
2023-03-17T05:59:09.586Z,4.80
2023-03-17T06:01:37.368Z,5.75
2023-03-17T06:04:04.483Z,5.45
2023-03-17T06:06:32.174Z,5.45
2023-03-17T06:08:59.738Z,5.93
2023-03-17T06:11:27.272Z,5.70
2023-03-17T06:13:54.673Z,4.63
2023-03-17T06:16:22.366Z,4.32
2023-03-17T06:18:49.796Z,4.72
2023-03-17T06:21:17.000Z,5.35
2023-03-17T06:23:44.098Z,6.17
2023-03-17T06:26:11.178Z,3.88
2023-03-17T06:28:38.339Z,5.95
2023-03-17T06:31:07.340Z,7.85
2023-03-17T06:33:35.343Z,6.15
2023-03-17T06:36:03.352Z,11.90
2023-03-17T06:38:30.480Z,12.65
2023-03-17T06:40:58.074Z,19.50
2023-03-17T06:43:25.292Z,23.38
2023-03-17T06:45:52.648Z,15.13
2023-03-17T06:48:19.883Z,14.37
2023-03-17T06:50:47.770Z,19.35
2023-03-17T06:53:15.014Z,14.70
2023-03-17T06:55:42.945Z,15.45
2023-03-17T06:58:10.673Z,8.57
2023-03-17T07:00:40.836Z,10.90
2023-03-17T07:03:09.998Z,9.15
2023-03-17T07:05:39.354Z,11.82
2023-03-17T07:08:06.721Z,9.52
2023-03-17T07:10:34.479Z,8.93
2023-03-17T07:13:02.414Z,8.53
2023-03-17T07:15:34.703Z,7.53
2023-03-17T07:18:02.609Z,5.35
2023-03-17T07:20:30.065Z,7.20
2023-03-17T07:22:58.096Z,6.88
2023-03-17T07:25:25.301Z,6.47
2023-03-17T07:27:52.818Z,8.55
2023-03-17T07:30:20.675Z,6.20
2023-03-17T07:32:48.746Z,5.75
2023-03-17T07:35:16.580Z,4.80
2023-03-17T07:37:44.634Z,4.50
2023-03-17T07:40:12.447Z,5.10
2023-03-17T07:42:39.590Z,5.30
2023-03-17T07:45:10.037Z,6.43
2023-03-17T07:47:37.622Z,9.10
2023-03-17T07:50:06.025Z,6.83
2023-03-17T07:52:34.694Z,6.25
2023-03-17T07:55:04.348Z,7.53
2023-03-17T07:57:41.925Z,11.60
2023-03-17T08:00:19.966Z,5.65
2023-03-17T08:03:54.491Z,7.67
2023-03-17T08:05:54.051Z,6.47
2023-03-17T08:08:29.196Z,5.43
2023-03-17T08:11:04.771Z,7.93
2023-03-17T08:13:35.252Z,6.85
2023-03-17T08:16:16.874Z,5.50
2023-03-17T08:19:21.211Z,7.55
2023-03-17T08:22:02.024Z,8.05
2023-03-17T08:24:45.856Z,5.93
2023-03-17T08:27:37.097Z,8.07
2023-03-17T08:30:09.155Z,8.63
2023-03-17T08:32:36.677Z,8.10
2023-03-17T08:35:15.969Z,8.48
2023-03-17T08:37:56.284Z,7.32
2023-03-17T08:40:26.150Z,6.88
2023-03-17T08:43:04.589Z,6.17
2023-03-17T08:45:33.538Z,7.35
2023-03-17T08:48:01.280Z,9.60
2023-03-17T08:50:36.032Z,15.93
2023-03-17T08:53:09.548Z,11.52
2023-03-17T08:55:42.070Z,13.80
2023-03-17T08:58:11.204Z,11.70
2023-03-17T09:00:51.265Z,14.20
2023-03-17T09:03:21.805Z,10.18
2023-03-17T09:05:54.916Z,12.68
2023-03-17T09:08:26.613Z,8.63
2023-03-17T09:11:08.086Z,9.75
2023-03-17T09:13:44.076Z,7.25
2023-03-17T09:16:16.558Z,7.13
2023-03-17T09:18:55.190Z,5.07
2023-03-17T09:21:22.675Z,7.67
2023-03-17T09:24:08.523Z,5.45
2023-03-17T09:26:49.112Z,5.28
2023-03-17T09:29:22.461Z,6.63
2023-03-17T09:31:58.531Z,7.28
2023-03-17T09:34:35.849Z,6.27
2023-03-17T09:37:15.683Z,9.50
2023-03-17T09:39:47.572Z,6.38
2023-03-17T09:43:06.664Z,7.70
2023-03-17T09:45:44.765Z,8.90
2023-03-17T09:48:39.121Z,5.70
2023-03-17T09:51:09.588Z,6.40
2023-03-17T09:54:11.006Z,6.63
2023-03-17T09:56:48.516Z,8.13
2023-03-17T09:59:34.455Z,7.43
2023-03-17T10:02:02.362Z,6.40
2023-03-17T10:04:29.906Z,6.45
2023-03-17T10:07:11.716Z,7.03
2023-03-17T10:10:19.886Z,8.25
2023-03-17T10:13:11.180Z,8.73
2023-03-17T10:16:01.711Z,7.13
2023-03-17T10:18:40.312Z,6.05
2023-03-17T10:21:16.387Z,7.32
2023-03-17T10:23:55.951Z,8.32
2023-03-17T10:26:45.291Z,6.10
2023-03-17T10:29:25.516Z,9.70
2023-03-17T10:31:58.299Z,6.13
2023-03-17T10:34:38.108Z,6.70
2023-03-17T10:37:16.279Z,7.47
2023-03-17T10:40:10.669Z,6.68
2023-03-17T10:43:05.982Z,7.20
2023-03-17T10:45:40.679Z,7.78
2023-03-17T10:48:11.007Z,6.95
2023-03-17T10:50:42.293Z,6.95
2023-03-17T10:54:38.511Z,5.93
2023-03-17T10:56:40.746Z,4.93
2023-03-17T10:59:24.312Z,6.90
2023-03-17T11:02:02.166Z,8.18
2023-03-17T11:04:37.332Z,6.13
2023-03-17T11:07:33.006Z,6.30
2023-03-17T11:10:08.685Z,5.60
2023-03-17T11:12:46.758Z,4.90
2023-03-17T11:15:22.868Z,5.85
2023-03-17T11:18:06.246Z,6.05
2023-03-17T11:20:52.664Z,8.65
2023-03-17T11:23:43.693Z,9.07
2023-03-17T11:26:18.946Z,4.75
2023-03-17T11:29:10.634Z,6.63
2023-03-17T11:32:02.348Z,8.38
2023-03-17T11:34:46.634Z,5.97
2023-03-17T11:38:01.386Z,6.10
2023-03-17T11:41:18.848Z,8.82
2023-03-17T11:44:19.786Z,6.82
2023-03-17T11:47:28.445Z,8.05
2023-03-17T11:50:26.545Z,5.07
2023-03-17T11:53:26.085Z,7.27
2023-03-17T11:56:44.262Z,6.18
2023-03-17T11:59:33.522Z,8.35
2023-03-17T12:02:31.643Z,5.28
2023-03-17T12:05:31.311Z,5.70
2023-03-17T12:08:27.448Z,4.90
2023-03-17T12:11:03.388Z,5.63
2023-03-17T12:13:56.886Z,8.80
2023-03-17T12:16:45.970Z,6.70
2023-03-17T12:19:40.872Z,8.25
2023-03-17T12:22:32.884Z,10.33
2023-03-17T12:25:41.450Z,5.80
2023-03-17T12:28:28.469Z,4.95
2023-03-17T12:31:24.616Z,7.05
2023-03-17T12:34:28.671Z,5.60
2023-03-17T12:37:08.677Z,5.23
2023-03-17T12:39:55.908Z,5.43
2023-03-17T12:42:47.236Z,7.45
2023-03-17T12:46:10.797Z,4.80
2023-03-17T12:49:22.933Z,5.43
2023-03-17T12:53:06.832Z,5.70
2023-03-17T12:55:37.096Z,6.45
2023-03-17T12:58:36.629Z,5.57
2023-03-17T13:01:40.356Z,5.50
2023-03-17T13:05:02.222Z,6.13
2023-03-17T13:07:42.600Z,4.57
2023-03-17T13:10:40.886Z,4.65
2023-03-17T13:13:29.478Z,5.70
2023-03-17T13:15:59.827Z,5.97
2023-03-17T13:18:48.006Z,5.90
2023-03-17T13:21:25.904Z,6.30
2023-03-17T13:24:28.548Z,7.78
2023-03-17T13:27:19.955Z,7.95
2023-03-17T13:30:02.822Z,6.45
2023-03-17T13:32:46.743Z,6.50
2023-03-17T13:35:20.309Z,3.97
2023-03-17T13:38:40.873Z,5.80
2023-03-17T13:41:33.517Z,7.05
2023-03-17T13:44:37.656Z,7.60
2023-03-17T13:47:41.309Z,5.70
2023-03-17T13:50:17.144Z,6.57
2023-03-17T13:56:18.939Z,5.80
2023-03-17T13:59:07.674Z,8.65
2023-03-17T14:02:35.411Z,5.93
2023-03-17T14:05:29.562Z,6.23
2023-03-17T14:08:06.098Z,6.47
2023-03-17T14:10:43.558Z,6.18
2023-03-17T14:13:32.818Z,5.13
2023-03-17T14:16:32.202Z,5.35
2023-03-17T14:19:22.755Z,6.30
2023-03-17T14:21:55.208Z,5.60
2023-03-17T14:24:36.112Z,6.78
2023-03-17T14:27:14.914Z,5.53
2023-03-17T14:29:55.801Z,5.15
2023-03-17T14:32:26.858Z,4.00
2023-03-17T14:35:01.979Z,6.45
2023-03-17T14:37:29.417Z,6.68
2023-03-17T14:39:59.168Z,5.18
2023-03-17T14:42:31.661Z,7.40
2023-03-17T14:45:33.633Z,6.03
2023-03-17T14:48:28.704Z,4.85
2023-03-17T14:51:10.098Z,3.47
2023-03-17T14:53:53.134Z,6.30
2023-03-17T14:56:50.701Z,4.13
2023-03-17T14:59:25.502Z,5.37
2023-03-17T15:01:59.950Z,7.57
2023-03-17T15:04:36.469Z,5.20
2023-03-17T15:07:09.032Z,4.07
2023-03-17T15:09:44.363Z,6.05
2023-03-17T15:12:26.097Z,3.60
2023-03-17T15:15:28.364Z,5.63
2023-03-17T15:18:03.780Z,4.57
2023-03-17T15:20:39.472Z,4.13
2023-03-17T15:23:20.727Z,4.18
2023-03-17T15:25:56.792Z,9.47
2023-03-17T15:28:29.386Z,5.25
2023-03-17T15:31:39.769Z,5.72
2023-03-17T15:34:12.586Z,6.75
2023-03-17T15:36:51.850Z,4.25
2023-03-17T15:39:27.154Z,7.57
2023-03-17T15:42:01.936Z,6.35
2023-03-17T15:44:33.722Z,5.63
2023-03-17T15:47:14.890Z,4.32
2023-03-17T15:49:44.871Z,5.45
2023-03-17T15:52:25.084Z,5.23
2023-03-17T15:54:57.830Z,8.68
2023-03-17T15:57:28.366Z,7.03
2023-03-17T16:00:04.947Z,8.45
2023-03-17T16:02:41.918Z,5.82
2023-03-17T16:05:28.645Z,6.23
2023-03-17T16:07:56.435Z,7.75
2023-03-17T16:10:34.692Z,5.70
2023-03-17T16:13:06.077Z,6.10
2023-03-17T16:15:42.212Z,6.75
2023-03-17T16:18:19.900Z,6.33
2023-03-17T16:20:49.963Z,5.22
2023-03-17T16:23:29.080Z,6.80
2023-03-17T16:26:15.044Z,5.95
2023-03-17T16:29:00.116Z,10.10
2023-03-17T16:31:34.752Z,9.37
2023-03-17T16:34:18.514Z,7.18
2023-03-17T16:36:52.200Z,6.70
2023-03-17T16:39:28.386Z,6.07
2023-03-17T16:41:55.817Z,5.95
2023-03-17T16:44:25.194Z,5.17
2023-03-17T16:46:57.977Z,7.30
2023-03-17T16:49:30.378Z,7.65
2023-03-17T16:52:00.412Z,8.50
2023-03-17T16:54:33.057Z,7.22
2023-03-17T16:57:13.867Z,6.40
2023-03-17T16:59:43.756Z,7.32
2023-03-17T17:02:18.473Z,8.05
2023-03-17T17:04:49.729Z,9.00
2023-03-17T17:07:16.965Z,6.53
2023-03-17T17:09:44.159Z,8.73
2023-03-17T17:12:26.286Z,9.38
2023-03-17T17:15:09.635Z,9.23
2023-03-17T17:17:39.601Z,7.57
2023-03-17T17:20:22.520Z,6.47
2023-03-17T17:22:55.141Z,9.77
2023-03-17T17:25:23.697Z,9.27
2023-03-17T17:28:02.013Z,7.45
2023-03-17T17:30:30.737Z,8.35
2023-03-17T17:33:00.475Z,8.15
2023-03-17T17:35:32.520Z,9.67
2023-03-17T17:38:01.944Z,7.00
2023-03-17T17:40:30.628Z,7.80
2023-03-17T17:42:58.515Z,7.95
2023-03-17T17:45:26.105Z,8.40
2023-03-17T17:47:53.239Z,9.73
2023-03-17T17:50:28.197Z,9.65
2023-03-17T17:53:01.567Z,11.32
2023-03-17T17:55:29.481Z,10.98
2023-03-17T17:57:56.633Z,10.88
2023-03-17T18:00:25.714Z,10.63
2023-03-17T18:02:52.770Z,10.68
2023-03-17T18:05:19.983Z,8.85
2023-03-17T18:07:47.068Z,11.00
2023-03-17T18:10:25.743Z,10.52
2023-03-17T18:12:53.597Z,10.03
2023-03-17T18:15:22.038Z,11.82
2023-03-17T18:17:50.164Z,10.02
2023-03-17T18:20:20.392Z,9.32
2023-03-17T18:22:48.079Z,10.75
2023-03-17T18:25:15.545Z,10.23
2023-03-17T18:27:43.533Z,9.48
2023-03-17T18:30:19.023Z,12.25
2023-03-17T18:32:49.579Z,9.73
2023-03-17T18:35:21.474Z,10.23
2023-03-17T18:37:49.986Z,12.37
2023-03-17T18:40:19.261Z,9.45
2023-03-17T18:42:47.220Z,10.98
2023-03-17T18:45:15.009Z,13.68
2023-03-17T18:47:42.324Z,10.70
2023-03-17T18:50:13.198Z,12.17
2023-03-17T18:52:42.095Z,12.43
2023-03-17T18:55:11.674Z,10.88
2023-03-17T18:57:39.483Z,10.32
2023-03-17T19:00:09.793Z,13.68
2023-03-17T19:02:38.201Z,10.83
2023-03-17T19:05:07.481Z,10.57
2023-03-17T19:07:35.719Z,10.93
2023-03-17T19:10:04.465Z,12.30
2023-03-17T19:12:31.956Z,12.32
2023-03-17T19:14:59.289Z,12.40
2023-03-17T19:17:26.627Z,9.27
2023-03-17T19:19:54.085Z,11.18
2023-03-17T19:22:21.223Z,11.50
2023-03-17T19:24:50.232Z,12.32
2023-03-17T19:27:18.025Z,14.13
2023-03-17T19:29:46.056Z,11.38
2023-03-17T19:32:13.279Z,11.60
2023-03-17T19:34:40.588Z,14.27
2023-03-17T19:37:07.769Z,11.63
2023-03-17T19:39:34.862Z,11.97
2023-03-17T19:42:01.984Z,12.48
2023-03-17T19:44:29.175Z,13.00
2023-03-17T19:46:56.546Z,12.10
2023-03-17T19:49:23.742Z,11.88
2023-03-17T19:51:50.916Z,12.70
2023-03-17T19:54:18.782Z,12.25
2023-03-17T19:56:46.406Z,14.85
2023-03-17T19:59:15.359Z,14.98
2023-03-17T20:01:42.801Z,12.07
2023-03-17T20:04:11.564Z,12.23
2023-03-17T20:06:38.782Z,14.23
2023-03-17T20:09:08.790Z,18.40
2023-03-17T20:11:36.295Z,14.13
2023-03-17T20:14:04.626Z,18.08
2023-03-17T20:16:36.099Z,11.53
2023-03-17T20:19:03.861Z,11.77
2023-03-17T20:21:31.369Z,13.02
2023-03-17T20:23:58.608Z,11.43
2023-03-17T20:26:25.861Z,11.82
2023-03-17T20:28:54.053Z,10.90
2023-03-17T20:31:22.527Z,10.20
2023-03-17T20:33:49.742Z,11.73
2023-03-17T20:36:16.903Z,13.23
2023-03-17T20:38:45.689Z,16.50
2023-03-17T20:41:16.587Z,12.07
2023-03-17T20:43:44.892Z,14.40
2023-03-17T20:46:22.892Z,14.13
2023-03-17T20:48:52.138Z,14.65
2023-03-17T20:51:20.056Z,13.73
2023-03-17T20:53:50.125Z,13.57
2023-03-17T20:56:22.269Z,12.02
2023-03-17T20:58:50.920Z,10.93
2023-03-17T21:01:21.277Z,14.73
2023-03-17T21:03:50.309Z,17.73
2023-03-17T21:06:18.765Z,14.43
2023-03-17T21:08:46.494Z,12.65
2023-03-17T21:11:18.689Z,15.00
2023-03-17T21:13:46.083Z,11.13
2023-03-17T21:16:24.273Z,17.30
2023-03-17T21:18:52.304Z,13.73
2023-03-17T21:21:20.669Z,12.38
2023-03-17T21:23:48.963Z,16.05
2023-03-17T21:26:16.520Z,12.73
2023-03-17T21:28:43.850Z,16.65
2023-03-17T21:31:13.578Z,12.53
2023-03-17T21:33:42.313Z,16.15
2023-03-17T21:36:10.186Z,12.23
2023-03-17T21:38:37.634Z,14.45
2023-03-17T21:41:34.549Z,14.85
2023-03-17T21:44:03.368Z,12.27
2023-03-17T21:46:31.882Z,12.68
2023-03-17T21:49:00.452Z,12.73
2023-03-17T21:51:28.637Z,17.52
2023-03-17T21:53:57.693Z,12.27
2023-03-17T21:56:25.698Z,12.50
2023-03-17T21:58:52.965Z,14.63
2023-03-17T22:01:21.915Z,18.08
2023-03-17T22:03:51.817Z,14.50
2023-03-17T22:06:20.749Z,14.02
2023-03-17T22:08:48.895Z,14.83
2023-03-17T22:11:18.903Z,15.00
2023-03-17T22:13:47.175Z,14.68
2023-03-17T22:16:16.611Z,17.50
2023-03-17T22:18:44.070Z,17.67
2023-03-17T22:21:11.520Z,12.70
2023-03-17T22:23:42.567Z,17.23
2023-03-17T22:26:15.842Z,13.43
2023-03-17T22:28:45.637Z,14.05
2023-03-17T22:31:24.290Z,14.93
2023-03-17T22:33:55.330Z,14.60
2023-03-17T22:36:24.206Z,15.05
2023-03-17T22:38:51.647Z,18.23
2023-03-17T22:41:24.032Z,14.32
2023-03-17T22:43:51.840Z,16.23
2023-03-17T22:46:20.080Z,15.10
2023-03-17T22:48:47.824Z,15.00
2023-03-17T22:51:20.842Z,14.27
2023-03-17T22:53:48.780Z,16.88
2023-03-17T22:56:17.827Z,20.65
2023-03-17T22:58:45.899Z,15.23
2023-03-17T23:01:16.217Z,16.00
2023-03-17T23:03:44.986Z,18.50
2023-03-17T23:06:13.277Z,13.35
2023-03-17T23:08:43.095Z,13.85
2023-03-17T23:11:16.345Z,15.53
2023-03-17T23:13:43.742Z,13.63
2023-03-17T23:16:11.447Z,13.27
2023-03-17T23:18:38.934Z,15.82
2023-03-17T23:21:06.886Z,13.65
2023-03-17T23:23:36.254Z,13.50
2023-03-17T23:26:04.250Z,16.08
2023-03-17T23:28:31.665Z,18.90
2023-03-17T23:30:58.857Z,13.80
2023-03-17T23:33:26.030Z,18.10
2023-03-17T23:35:53.506Z,12.83
2023-03-17T23:38:21.612Z,16.80
2023-03-17T23:40:50.018Z,15.55
2023-03-17T23:43:17.269Z,17.48
2023-03-17T23:45:45.463Z,15.88
2023-03-17T23:48:12.863Z,14.10
2023-03-17T23:50:41.237Z,16.85
2023-03-17T23:53:09.585Z,16.08
2023-03-17T23:55:36.753Z,14.98
2023-03-17T23:58:03.848Z,16.90
